Time;durP1;ratioP1;P1;durP2;ratioP2;P2;SDS_P1;SDS_P2;PMS_P1;PMS_P2;Temp;Humidity;BMP_temperature;BMP_pressure;BME280_temperature;BME280_humidity;BME280_pressure;Samples;Min_cycle;Max_cycle;Signal;HPM_P1;HPM_P2
2023/07/07 00:00:22;;;;;;;9.65;6.22;;;;;;;12.10;100.00;101956.56;10582436;28;20051;-67
2023/07/07 00:05:22;;;;;;;10.82;6.38;;;;;;;12.06;100.00;101947.06;10583610;28;20035;-66
2023/07/07 00:10:23;;;;;;;9.93;6.28;;;;;;;12.00;100.00;101945.25;10583101;28;20031;-67
2023/07/07 00:15:24;;;;;;;15.18;7.53;;;;;;;12.01;100.00;101953.31;10581728;28;20028;-66
2023/07/07 00:20:24;;;;;;;11.68;6.22;;;;;;;11.97;100.00;101952.09;10564740;27;20036;-67
2023/07/07 00:25:25;;;;;;;11.80;6.85;;;;;;;11.92;100.00;101949.19;10583152;28;20036;-66
2023/07/07 00:30:25;;;;;;;10.48;6.80;;;;;;;11.86;100.00;101950.94;10582098;28;20395;-66
2023/07/07 00:35:25;;;;;;;9.68;7.20;;;;;;;11.83;100.00;101947.84;10565011;28;20146;-66
2023/07/07 00:40:26;;;;;;;11.50;7.22;;;;;;;11.83;100.00;101954.19;10578941;28;20036;-66
2023/07/07 00:45:26;;;;;;;11.23;7.00;;;;;;;11.81;100.00;101948.06;10570729;27;20108;-67
2023/07/07 00:50:32;;;;;;;10.65;7.10;;;;;;;11.74;100.00;101955.63;10588997;27;20057;-66
2023/07/07 00:55:38;;;;;;;12.93;6.78;;;;;;;11.67;100.00;101960.38;10573437;27;20043;-66
2023/07/07 01:00:39;;;;;;;12.55;7.45;;;;;;;11.62;100.00;101957.50;10589672;27;20036;-66
2023/07/07 01:05:40;;;;;;;11.93;7.35;;;;;;;11.59;100.00;101957.97;10564269;27;20036;-66
2023/07/07 01:10:41;;;;;;;13.73;8.10;;;;;;;11.51;100.00;101953.59;10586292;27;20060;-66
2023/07/07 01:16:15;;;;;;;12.32;8.43;;;;;;;11.43;100.00;101941.00;10588940;27;20061;-67
2023/07/07 01:21:39;;;;;;;15.00;8.07;;;;;;;11.45;100.00;101955.41;10573297;27;20360;-67
2023/07/07 01:26:43;;;;;;;14.25;9.05;;;;;;;11.39;100.00;101948.06;10553709;28;20039;-67
2023/07/07 01:31:49;;;;;;;13.93;8.65;;;;;;;11.37;100.00;101957.63;10588604;28;20058;-67
2023/07/07 01:36:49;;;;;;;13.63;8.57;;;;;;;11.36;100.00;101956.78;10569753;28;20055;-67
2023/07/07 01:41:56;;;;;;;14.38;8.32;;;;;;;11.31;100.00;101953.91;10587306;27;20108;-67
2023/07/07 01:47:04;;;;;;;14.82;9.65;;;;;;;11.27;100.00;101949.94;10571883;28;20091;-67
2023/07/07 01:52:24;;;;;;;16.45;9.63;;;;;;;11.23;100.00;101957.81;10570496;27;20513;-67
2023/07/07 01:57:25;;;;;;;15.63;9.00;;;;;;;11.20;100.00;101949.16;10586446;27;20069;-67
2023/07/07 02:02:26;;;;;;;13.82;9.18;;;;;;;11.14;100.00;101937.19;10584129;27;20118;-67
2023/07/07 02:07:26;;;;;;;14.90;9.90;;;;;;;11.17;100.00;101939.47;10585233;27;20035;-67
2023/07/07 02:12:27;;;;;;;17.52;9.95;;;;;;;11.16;100.00;101940.50;10568561;27;20483;-67
2023/07/07 02:17:28;;;;;;;15.73;10.20;;;;;;;11.11;100.00;101943.97;10586547;27;20043;-66
2023/07/07 02:22:29;;;;;;;20.00;11.25;;;;;;;11.05;100.00;101931.13;10583291;27;20035;-67
2023/07/07 02:27:29;;;;;;;17.13;9.82;;;;;;;11.01;100.00;101938.16;10565492;27;20039;-68
2023/07/07 02:32:30;;;;;;;17.13;10.63;;;;;;;10.98;100.00;101943.31;10585118;27;20039;-67
2023/07/07 02:37:30;;;;;;;20.75;11.23;;;;;;;10.90;100.00;101944.47;10585020;27;20040;-66
2023/07/07 02:42:31;;;;;;;20.75;11.00;;;;;;;10.87;100.00;101947.66;10583840;27;20115;-67
2023/07/07 02:47:31;;;;;;;18.70;11.32;;;;;;;10.89;100.00;101956.53;10586040;27;20088;-67
2023/07/07 02:52:32;;;;;;;16.35;11.75;;;;;;;10.87;100.00;101953.16;10581247;27;20039;-67
2023/07/07 02:57:32;;;;;;;17.70;11.77;;;;;;;10.84;100.00;101950.91;10583438;27;20040;-67
2023/07/07 03:02:33;;;;;;;19.40;11.55;;;;;;;10.79;100.00;101950.72;10582196;27;20047;-66
2023/07/07 03:07:33;;;;;;;18.98;12.32;;;;;;;10.74;100.00;101961.59;10583225;27;20448;-66
2023/07/07 03:12:34;;;;;;;25.23;12.52;;;;;;;10.72;100.00;101963.75;10582816;27;20055;-66
2023/07/07 03:17:35;;;;;;;20.98;13.07;;;;;;;10.70;100.00;101967.56;10582673;27;20039;-66
2023/07/07 03:22:35;;;;;;;19.55;12.02;;;;;;;10.68;100.00;101966.94;10580524;27;20028;-66
2023/07/07 03:27:36;;;;;;;18.38;12.80;;;;;;;10.67;100.00;101965.28;10580215;28;20039;-66
2023/07/07 03:32:37;;;;;;;23.60;13.35;;;;;;;10.61;100.00;101966.19;10581050;28;20528;-66
2023/07/07 03:37:37;;;;;;;20.20;13.60;;;;;;;10.64;100.00;101970.38;10583824;28;20035;-67
2023/07/07 03:42:38;;;;;;;21.92;13.15;;;;;;;10.66;100.00;101974.59;10583845;27;20165;-67
2023/07/07 03:47:38;;;;;;;23.80;14.40;;;;;;;10.67;100.00;101972.69;10582314;28;20034;-67
2023/07/07 03:52:39;;;;;;;21.33;14.18;;;;;;;10.67;100.00;101981.78;10580313;28;20532;-67
2023/07/07 03:57:39;;;;;;;22.67;13.57;;;;;;;10.79;100.00;101994.78;10544245;28;20615;-67
2023/07/07 04:02:43;;;;;;;29.92;15.85;;;;;;;10.76;100.00;101987.84;10581704;28;20028;-67
2023/07/07 04:07:45;;;;;;;23.73;14.65;;;;;;;10.81;100.00;101985.25;10563281;28;20071;-67
2023/07/07 04:12:45;;;;;;;26.38;14.90;;;;;;;10.87;100.00;101995.38;10581439;28;20043;-67
2023/07/07 04:17:46;;;;;;;25.08;15.30;;;;;;;10.94;100.00;101991.69;10582109;28;20047;-69
2023/07/07 04:22:47;;;;;;;26.08;16.10;;;;;;;10.99;100.00;101983.56;10588395;27;20040;-67
2023/07/07 04:27:47;;;;;;;26.90;15.63;;;;;;;11.04;100.00;101992.00;10587969;27;20031;-68
2023/07/07 04:32:48;;;;;;;27.10;17.25;;;;;;;11.13;100.00;101987.84;10587839;27;20032;-68
2023/07/07 04:37:48;;;;;;;27.05;16.73;;;;;;;11.25;100.00;101993.44;10587475;27;20039;-67
2023/07/07 04:42:49;;;;;;;24.63;15.63;;;;;;;11.27;100.00;101996.81;10588194;27;20052;-68
2023/07/07 04:47:49;;;;;;;24.15;15.60;;;;;;;11.40;100.00;101998.53;10587682;27;20130;-67
2023/07/07 04:52:50;;;;;;;28.42;16.90;;;;;;;11.48;100.00;102004.56;10589142;27;20047;-68
2023/07/07 04:57:50;;;;;;;32.83;18.85;;;;;;;11.57;100.00;102013.34;10588306;27;20051;-68
2023/07/07 05:02:51;;;;;;;24.88;16.25;;;;;;;11.80;100.00;102023.66;10551479;27;20039;-68
2023/07/07 05:07:51;;;;;;;31.60;17.92;;;;;;;11.89;100.00;102016.75;10587006;27;20036;-68
2023/07/07 05:12:51;;;;;;;26.38;16.35;;;;;;;11.99;100.00;102024.47;10570924;27;20494;-67
2023/07/07 05:17:52;;;;;;;30.45;16.60;;;;;;;12.16;100.00;102032.91;10587537;27;20040;-67
2023/07/07 05:22:52;;;;;;;29.48;17.20;;;;;;;12.35;100.00;102024.53;10588278;27;20457;-68
2023/07/07 05:27:53;;;;;;;23.95;16.23;;;;;;;12.58;100.00;102027.31;10586578;27;20047;-67
2023/07/07 05:32:53;;;;;;;26.27;16.27;;;;;;;12.70;100.00;102011.56;10587703;27;20058;-67
2023/07/07 05:37:54;;;;;;;28.02;15.55;;;;;;;13.04;100.00;102036.69;10587423;27;20058;-67
2023/07/07 05:42:55;;;;;;;28.05;15.02;;;;;;;13.03;100.00;101999.03;10569803;27;20032;-67
2023/07/07 05:47:55;;;;;;;24.85;13.75;;;;;;;13.66;100.00;102036.06;10587152;27;20036;-68
2023/07/07 05:52:55;;;;;;;17.80;12.90;;;;;;;13.91;100.00;102044.00;10585164;27;20057;-67
2023/07/07 05:57:56;;;;;;;17.08;12.77;;;;;;;14.21;100.00;102040.09;10569536;27;20036;-68
2023/07/07 06:02:57;;;;;;;14.57;10.98;;;;;;;14.59;100.00;102033.00;10574063;27;20051;-66
2023/07/07 06:07:57;;;;;;;18.83;11.13;;;;;;;15.04;100.00;102034.78;10564616;28;20360;-67
2023/07/07 06:12:58;;;;;;;13.38;8.85;;;;;;;15.52;100.00;102035.97;10586742;27;20425;-67
2023/07/07 06:17:58;;;;;;;19.23;9.55;;;;;;;16.05;100.00;102033.50;10567588;27;20043;-67
2023/07/07 06:22:59;;;;;;;14.27;8.63;;;;;;;16.49;100.00;102026.91;10584199;27;20032;-67
2023/07/07 06:27:59;;;;;;;11.13;7.80;;;;;;;16.23;100.00;101921.13;10585017;27;20039;-67
2023/07/07 06:33:02;;;;;;;14.68;7.90;;;;;;;17.22;100.00;102031.84;10583512;27;20470;-67
2023/07/07 06:38:03;;;;;;;13.50;6.75;;;;;;;17.54;100.00;102026.97;10586378;27;20089;-67
2023/07/07 06:43:03;;;;;;;11.18;7.15;;;;;;;17.88;100.00;102031.28;10585167;27;20078;-66
2023/07/07 06:48:04;;;;;;;12.35;7.85;;;;;;;18.01;100.00;102027.97;10566237;27;20028;-67
2023/07/07 06:53:05;;;;;;;11.32;7.50;;;;;;;18.07;100.00;102012.94;10549451;27;20092;-67
2023/07/07 06:58:06;;;;;;;10.70;5.90;;;;;;;18.49;100.00;102024.91;10561314;27;20035;-68
2023/07/07 07:03:06;;;;;;;13.95;6.78;;;;;;;18.67;100.00;102029.91;10563052;28;20028;-67
2023/07/07 07:08:07;;;;;;;12.52;6.85;;;;;;;19.08;100.00;102032.66;10562777;27;20040;-67
2023/07/07 07:13:08;;;;;;;13.98;6.32;;;;;;;19.46;100.00;102030.25;10560459;28;20115;-67
2023/07/07 07:18:13;;;;;;;12.60;5.95;;;;;;;19.66;100.00;102022.91;10583444;27;20038;-68
2023/07/07 07:23:13;;;;;;;9.32;5.25;;;;;;;19.85;100.00;102025.91;10565206;27;20032;-67
2023/07/07 07:28:14;;;;;;;11.77;6.35;;;;;;;20.11;100.00;102016.22;10580825;27;20027;-68
2023/07/07 07:33:19;;;;;;;8.95;5.03;;;;;;;20.46;100.00;102027.38;10582040;28;20028;-68
2023/07/07 07:38:21;;;;;;;10.25;4.47;;;;;;;20.69;100.00;102026.66;10582138;27;20047;-68
2023/07/07 07:43:21;;;;;;;10.60;4.18;;;;;;;20.74;100.00;102018.19;10541529;28;20475;-68
2023/07/07 07:48:22;;;;;;;5.45;3.50;;;;;;;21.08;100.00;102022.03;10559867;28;20028;-67
2023/07/07 07:53:22;;;;;;;7.05;3.60;;;;;;;21.17;100.00;102009.88;10561595;28;20031;-67
2023/07/07 07:58:23;;;;;;;6.65;3.50;;;;;;;21.31;100.00;102014.75;10560513;28;20039;-67
2023/07/07 08:03:23;;;;;;;5.93;2.83;;;;;;;21.43;100.00;102017.97;10567611;28;20032;-67
2023/07/07 08:08:23;;;;;;;5.25;2.60;;;;;;;21.77;100.00;102022.56;10560941;28;20040;-68
2023/07/07 08:13:24;;;;;;;6.25;2.70;;;;;;;21.73;100.00;102022.34;10560816;28;20031;-67
2023/07/07 08:18:24;;;;;;;7.78;2.60;;;;;;;21.70;100.00;101999.69;10560328;28;20124;-68
2023/07/07 08:23:25;;;;;;;5.47;2.33;;;;;;;22.16;100.00;102027.03;10561309;28;20089;-68
2023/07/07 08:28:25;;;;;;;3.97;2.05;;;;;;;22.35;100.00;102021.41;10580599;28;20051;-68
2023/07/07 08:33:26;;;;;;;3.90;2.55;;;;;;;22.54;100.00;102024.16;10578745;28;20040;-67
2023/07/07 08:38:26;;;;;;;3.17;1.98;;;;;;;22.61;100.00;101987.28;10524886;28;20036;-68
2023/07/07 08:43:29;;;;;;;3.03;1.77;;;;;;;23.03;100.00;102014.28;10532734;28;20032;-68
2023/07/07 08:48:39;;;;;;;4.97;2.25;;;;;;;23.26;100.00;102015.22;10533673;28;20044;-68
2023/07/07 08:54:10;;;;;;;5.43;2.35;;;;;;;23.00;92.49;102003.63;10536031;28;20068;-68
2023/07/07 08:59:35;;;;;;;2.78;1.50;;;;;;;23.05;96.71;101978.31;10522853;28;20084;-68
2023/07/07 09:04:48;;;;;;;3.88;1.42;;;;;;;23.49;91.52;102021.75;10498479;28;20037;-69
2023/07/07 09:10:06;;;;;;;3.42;1.35;;;;;;;23.38;84.37;102003.47;10513424;28;20159;-69
2023/07/07 09:15:18;;;;;;;4.68;1.40;;;;;;;23.55;84.83;102003.63;10497414;28;20060;-68
2023/07/07 09:20:19;;;;;;;8.32;1.70;;;;;;;23.75;86.97;101995.84;10469470;28;20412;-67
2023/07/07 09:25:24;;;;;;;3.65;1.67;;;;;;;23.91;83.27;102004.81;10505179;28;20036;-67
2023/07/07 09:30:27;;;;;;;4.07;1.80;;;;;;;23.87;81.61;101998.97;10525640;28;20066;-68
2023/07/07 09:35:31;;;;;;;8.30;2.70;;;;;;;24.07;81.36;102005.28;10541065;28;20097;-66
2023/07/07 09:40:37;;;;;;;4.78;1.38;;;;;;;24.36;81.51;102014.09;10526918;28;20028;-66
2023/07/07 09:45:51;;;;;;;2.42;1.60;;;;;;;24.63;81.80;102008.66;10544948;28;20062;-66
2023/07/07 09:51:00;;;;;;;6.72;1.90;;;;;;;24.68;78.30;102000.91;10513861;28;20036;-65
2023/07/07 09:56:01;;;;;;;5.63;2.10;;;;;;;24.73;78.21;101992.31;10519446;28;20093;-66
2023/07/07 10:01:02;;;;;;;2.25;1.45;;;;;;;25.08;81.95;102015.00;10520449;28;20063;-67
2023/07/07 10:06:20;;;;;;;3.17;1.50;;;;;;;25.38;76.73;101995.53;10502079;28;20045;-67
2023/07/07 10:11:22;;;;;;;3.08;1.40;;;;;;;25.44;73.98;102001.88;10521119;28;20044;-66
2023/07/07 10:16:34;;;;;;;2.83;1.35;;;;;;;25.50;72.84;102004.19;10523613;28;20051;-67
2023/07/07 10:21:35;;;;;;;3.65;1.40;;;;;;;25.70;74.39;101997.09;10522531;28;20476;-67
2023/07/07 10:26:37;;;;;;;4.88;2.00;;;;;;;25.72;70.85;101991.13;10503365;28;20055;-67
2023/07/07 10:31:41;;;;;;;3.70;1.42;;;;;;;25.75;71.31;102004.56;10503770;28;20475;-68
2023/07/07 10:36:42;;;;;;;2.38;1.45;;;;;;;25.84;73.34;101996.94;10517654;28;20040;-67
2023/07/07 10:41:42;;;;;;;3.60;1.63;;;;;;;26.06;70.84;101997.94;10521329;28;20492;-66
2023/07/07 10:46:43;;;;;;;5.35;1.73;;;;;;;26.11;70.45;102000.63;10531326;28;20043;-66
2023/07/07 10:52:11;;;;;;;5.35;1.38;;;;;;;26.56;72.10;102005.84;10540975;28;20032;-69
2023/07/07 10:57:32;;;;;;;2.78;1.45;;;;;;;26.84;72.39;102006.28;10541119;28;20044;-68
2023/07/07 11:02:53;;;;;;;5.20;1.48;;;;;;;26.78;69.44;101991.50;10542088;28;20044;-68
2023/07/07 11:07:59;;;;;;;4.32;1.67;;;;;;;26.83;68.65;101996.16;10525919;28;20071;-69
2023/07/07 11:13:09;;;;;;;2.30;1.33;;;;;;;26.91;70.63;102006.56;10523503;28;20151;-67
2023/07/07 11:18:34;;;;;;;6.15;1.77;;;;;;;26.96;68.00;102002.75;10514619;28;20040;-70
2023/07/07 11:23:47;;;;;;;2.95;1.60;;;;;;;26.94;65.71;101988.13;10499502;28;20507;-69
2023/07/07 11:29:12;;;;;;;3.65;1.73;;;;;;;27.26;66.57;101995.13;10526200;28;20527;-68
2023/07/07 11:34:37;;;;;;;2.65;1.65;;;;;;;27.22;63.17;101982.00;10537918;28;20029;-71
2023/07/07 11:40:10;;;;;;;2.80;1.50;;;;;;;27.53;67.36;101990.13;10537910;28;20099;-70
2023/07/07 11:45:22;;;;;;;3.78;1.77;;;;;;;27.68;63.87;101978.22;10496887;28;20031;-70
2023/07/07 11:50:32;;;;;;;2.53;1.45;;;;;;;27.45;64.35;101986.22;10536952;28;20050;-71
2023/07/07 11:55:51;;;;;;;5.95;2.08;;;;;;;27.88;62.77;101982.22;10540251;28;20511;-69
2023/07/07 12:01:25;;;;;;;3.42;1.85;;;;;;;28.53;60.98;101970.47;10534187;28;20040;-69
2023/07/07 12:06:45;;;;;;;2.83;1.27;;;;;;;29.33;57.41;101949.22;10535419;28;20483;-72
2023/07/07 12:11:49;;;;;;;3.03;1.45;;;;;;;29.74;56.77;101935.91;10535925;28;20037;-70
2023/07/07 12:16:50;;;;;;;4.55;1.67;;;;;;;30.28;57.09;101952.44;10522165;28;20040;-66
2023/07/07 12:21:51;;;;;;;3.30;1.25;;;;;;;30.41;55.35;101952.41;10537971;28;20412;-70
2023/07/07 12:27:00;;;;;;;3.38;1.40;;;;;;;30.17;53.67;101939.97;10535647;28;20047;-71
2023/07/07 12:32:01;;;;;;;4.68;1.90;;;;;;;30.38;51.71;101932.03;10538403;28;20036;-73
2023/07/07 12:37:01;;;;;;;4.95;1.60;;;;;;;30.61;52.24;101934.25;10540250;28;20032;-74
2023/07/07 12:42:04;;;;;;;4.10;1.50;;;;;;;30.70;52.49;101932.06;10548378;28;20028;-73
2023/07/07 12:47:17;;;;;;;3.25;1.58;;;;;;;31.27;50.85;101923.28;10511709;28;20037;-71
2023/07/07 12:52:17;;;;;;;2.47;1.48;;;;;;;32.23;46.74;101898.88;10506456;28;20040;-72
2023/07/07 12:57:18;;;;;;;2.72;1.60;;;;;;;32.18;46.99;101916.28;10480861;28;20033;-69
2023/07/07 13:02:25;;;;;;;3.07;1.80;;;;;;;32.26;43.70;101892.41;10484905;28;20092;-70
2023/07/07 13:07:32;;;;;;;2.33;1.60;;;;;;;32.55;44.85;101898.66;10520357;28;20290;-71
2023/07/07 13:12:41;;;;;;;2.30;1.40;;;;;;;32.58;44.30;101906.44;10521787;28;20257;-71
2023/07/07 13:17:41;;;;;;;2.97;1.70;;;;;;;32.46;44.68;101907.44;10524284;28;20028;-71
2023/07/07 13:23:04;;;;;;;2.97;1.42;;;;;;;33.28;42.94;101892.84;10545058;28;20036;-70
2023/07/07 13:28:10;;;;;;;3.10;1.30;;;;;;;33.23;42.17;101899.72;10518402;28;20036;-71
2023/07/07 13:33:12;;;;;;;2.20;1.40;;;;;;;33.24;43.57;101900.53;10536585;28;20131;-70
2023/07/07 13:38:14;;;;;;;1.90;1.27;;;;;;;33.60;40.82;101883.91;10545928;28;20048;-71
2023/07/07 13:43:24;;;;;;;5.80;2.00;;;;;;;33.54;41.67;101872.81;10525002;28;20463;-70
2023/07/07 13:48:25;;;;;;;4.10;1.73;;;;;;;33.20;41.39;101889.09;10540259;28;20070;-69
2023/07/07 13:53:26;;;;;;;3.47;1.65;;;;;;;32.94;41.17;101884.19;10540800;28;20048;-71
2023/07/07 13:58:26;;;;;;;3.15;1.70;;;;;;;33.45;40.29;101889.44;10541377;28;20040;-68
2023/07/07 14:03:28;;;;;;;2.45;1.60;;;;;;;33.95;39.43;101887.19;10545271;28;20350;-72
2023/07/07 14:08:28;;;;;;;3.60;1.40;;;;;;;34.52;38.75;101891.81;10543818;28;20048;-66
2023/07/07 14:13:30;;;;;;;3.90;1.85;;;;;;;34.64;38.53;101874.38;10539366;28;20044;-68
2023/07/07 14:18:34;;;;;;;2.38;1.58;;;;;;;35.01;38.07;101873.41;10515250;28;20078;-72
2023/07/07 14:23:34;;;;;;;4.72;1.88;;;;;;;34.79;37.52;101865.91;10541096;28;20025;-70
2023/07/07 14:28:36;;;;;;;3.53;1.50;;;;;;;34.89;37.85;101868.03;10523413;28;20043;-71
2023/07/07 14:33:47;;;;;;;3.55;1.80;;;;;;;34.92;36.29;101864.38;10544100;28;20025;-72
2023/07/07 14:38:54;;;;;;;3.15;1.98;;;;;;;34.91;36.51;101877.03;10543684;28;20540;-74
2023/07/07 14:43:55;;;;;;;4.70;1.63;;;;;;;35.35;35.94;101867.50;10542985;28;20051;-71
2023/07/07 14:48:57;;;;;;;2.65;1.75;;;;;;;35.25;34.63;101862.56;10542668;28;20036;-73
2023/07/07 14:54:01;;;;;;;5.70;2.00;;;;;;;34.92;34.68;101864.38;10524696;28;20048;-68
2023/07/07 14:59:03;;;;;;;2.97;1.80;;;;;;;35.06;34.53;101855.88;10498818;28;20100;-68
2023/07/07 15:04:11;;;;;;;4.03;1.77;;;;;;;35.00;35.38;101851.75;10501131;28;20078;-67
2023/07/07 15:09:11;;;;;;;4.80;1.75;;;;;;;34.62;35.54;101861.69;10481460;28;20907;-68
2023/07/07 15:14:12;;;;;;;3.42;1.90;;;;;;;34.66;36.61;101857.66;10515102;28;20043;-69
2023/07/07 15:19:20;;;;;;;3.53;1.77;;;;;;;35.00;36.04;101848.91;10514911;28;20024;-69
2023/07/07 15:24:21;;;;;;;4.57;1.65;;;;;;;35.35;35.73;101859.72;10514708;28;20029;-68
2023/07/07 15:29:22;;;;;;;2.65;1.85;;;;;;;35.44;35.26;101864.25;10535742;28;20115;-68
2023/07/07 15:34:24;;;;;;;3.65;1.73;;;;;;;35.63;33.86;101841.00;10542084;28;20071;-68
2023/07/07 15:39:24;;;;;;;2.05;1.63;;;;;;;35.87;33.37;101844.38;10539351;28;20047;-69
2023/07/07 15:44:24;;;;;;;2.85;1.73;;;;;;;35.57;33.15;101837.69;10539420;28;20454;-69
2023/07/07 15:49:25;;;;;;;3.28;1.80;;;;;;;35.93;32.46;101840.69;10539273;28;20094;-69
2023/07/07 15:54:25;;;;;;;2.90;1.85;;;;;;;36.28;32.69;101832.53;10528160;28;20480;-70
2023/07/07 15:59:26;;;;;;;2.80;1.52;;;;;;;36.26;31.90;101835.00;10499703;28;20495;-68
2023/07/07 16:04:26;;;;;;;3.05;1.45;;;;;;;36.73;31.80;101816.56;10499571;28;20044;-73
2023/07/07 16:09:28;;;;;;;2.42;1.63;;;;;;;36.63;31.61;101823.16;10498535;28;20036;-74
2023/07/07 16:14:29;;;;;;;3.03;1.60;;;;;;;36.41;31.11;101810.84;10498265;22;20039;-77
2023/07/07 16:19:30;;;;;;;3.58;2.13;;;;;;;36.40;32.41;101822.72;10426800;28;20061;-71
2023/07/07 16:24:30;;;;;;;3.92;1.80;;;;;;;36.00;32.15;101810.41;10393888;28;20048;-73
2023/07/07 16:29:31;;;;;;;2.33;1.67;;;;;;;35.55;31.98;101814.38;10426175;28;20796;-73
2023/07/07 16:34:31;;;;;;;4.20;1.60;;;;;;;35.90;31.18;101801.38;10461546;28;20070;-69
2023/07/07 16:39:32;;;;;;;3.25;1.77;;;;;;;35.78;32.72;101810.38;10491131;28;20492;-69
2023/07/07 16:44:32;;;;;;;2.58;1.60;;;;;;;34.66;32.46;101806.19;10508429;28;20442;-68
2023/07/07 16:49:32;;;;;;;2.85;2.00;;;;;;;33.39;33.69;101795.97;10508634;28;20385;-69
2023/07/07 16:54:33;;;;;;;1.85;1.40;;;;;;;31.90;34.54;101799.78;10508786;28;20476;-69
2023/07/07 16:59:34;;;;;;;2.30;1.75;;;;;;;30.45;36.07;101805.56;10507514;28;20089;-69
2023/07/07 17:04:34;;;;;;;2.17;1.70;;;;;;;29.32;37.27;101817.13;10484154;28;20048;-68
2023/07/07 17:09:35;;;;;;;2.70;1.50;;;;;;;28.60;38.56;101809.22;10501550;28;20045;-67
2023/07/07 17:14:35;;;;;;;1.90;1.40;;;;;;;28.19;40.74;101828.06;10506352;28;20033;-73
2023/07/07 17:19:36;;;;;;;4.05;1.63;;;;;;;27.68;41.31;101825.44;10472534;28;20071;-73
2023/07/07 17:24:36;;;;;;;4.63;1.48;;;;;;;27.45;41.81;101822.19;10481109;28;20037;-71
2023/07/07 17:29:37;;;;;;;2.67;1.35;;;;;;;27.05;42.68;101836.78;10476841;28;20036;-71
2023/07/07 17:34:37;;;;;;;4.78;1.73;;;;;;;26.79;43.01;101831.31;10446160;28;20059;-73
2023/07/07 17:39:38;;;;;;;3.53;1.40;;;;;;;26.61;44.78;101838.25;10467902;28;20050;-73
2023/07/07 17:44:38;;;;;;;4.38;1.55;;;;;;;26.21;44.20;101828.09;10504782;28;20041;-70
2023/07/07 17:49:39;;;;;;;4.60;1.60;;;;;;;25.92;46.18;101843.81;10504756;28;20026;-71
2023/07/07 17:54:41;;;;;;;2.55;1.45;;;;;;;25.73;47.85;101852.56;10485273;28;20045;-71
2023/07/07 17:59:42;;;;;;;3.92;1.55;;;;;;;25.47;47.90;101852.63;10502894;28;20039;-70
2023/07/07 18:04:43;;;;;;;4.28;1.58;;;;;;;25.36;49.24;101846.50;10482395;28;20060;-71
2023/07/07 18:09:43;;;;;;;5.13;1.50;;;;;;;25.17;50.06;101854.41;10484199;28;20044;-71
2023/07/07 18:14:44;;;;;;;3.38;1.75;;;;;;;24.95;50.69;101863.81;10505131;28;20029;-71
2023/07/07 18:19:44;;;;;;;2.63;1.60;;;;;;;24.76;53.62;101867.78;10454117;28;20040;-72
2023/07/07 18:24:45;;;;;;;2.97;2.15;;;;;;;24.64;55.25;101878.81;10469826;28;20036;-71
2023/07/07 18:29:45;;;;;;;2.75;1.45;;;;;;;24.44;54.66;101865.31;10472803;28;20381;-71
2023/07/07 18:34:46;;;;;;;3.00;1.75;;;;;;;24.26;54.87;101870.84;10453090;28;20028;-71
2023/07/07 18:39:47;;;;;;;8.23;1.95;;;;;;;24.13;57.45;101883.03;10502866;28;20075;-70
2023/07/07 18:44:48;;;;;;;3.15;1.73;;;;;;;24.02;61.35;101898.50;10503668;28;20040;-71
2023/07/07 18:49:48;;;;;;;5.38;1.90;;;;;;;23.77;66.39;101910.09;10482854;28;20040;-71
2023/07/07 18:54:49;;;;;;;5.63;1.92;;;;;;;23.56;71.37;101915.34;10484897;28;20102;-71
2023/07/07 18:59:49;;;;;;;3.33;2.20;;;;;;;23.24;77.89;101924.81;10471600;28;20072;-71
2023/07/07 19:04:49;;;;;;;4.50;2.55;;;;;;;22.95;83.01;101922.31;10467545;28;20052;-70
2023/07/07 19:09:52;;;;;;;2.97;2.38;;;;;;;22.59;86.15;101914.59;10467381;28;20044;-70
2023/07/07 19:14:52;;;;;;;6.03;2.35;;;;;;;22.40;89.09;101939.13;10501026;28;20052;-73
2023/07/07 19:19:53;;;;;;;4.50;1.80;;;;;;;22.06;90.93;101926.25;10483577;28;20491;-77
2023/07/07 19:24:53;;;;;;;4.45;2.22;;;;;;;21.64;92.31;101908.41;10466187;28;20500;-78
2023/07/07 19:29:57;;;;;;;6.22;2.42;;;;;;;21.56;93.13;101943.56;10481981;28;20094;-83
2023/07/07 19:34:57;;;;;;;3.53;1.95;;;;;;;21.33;94.76;101948.06;10483270;28;20070;-71
2023/07/07 19:39:57;;;;;;;6.97;2.10;;;;;;;21.14;98.25;101954.47;10482878;28;20074;-88
2023/07/07 19:44:58;;;;;;;4.15;2.00;;;;;;;20.90;100.00;101953.66;10482780;28;20040;-67
2023/07/07 19:49:58;;;;;;;4.45;2.88;;;;;;;20.67;100.00;101960.91;10499603;28;20059;-67
2023/07/07 19:54:59;;;;;;;4.25;1.83;;;;;;;20.38;100.00;101963.69;10500455;28;20078;-69
2023/07/07 20:00:00;;;;;;;6.22;2.55;;;;;;;20.15;100.00;101966.97;10482400;28;20468;-66
2023/07/07 20:05:01;;;;;;;9.23;3.33;;;;;;;19.98;100.00;101966.56;10482487;28;20036;-66
2023/07/07 20:10:01;;;;;;;3.15;2.20;;;;;;;19.78;100.00;101959.16;10482376;28;20076;-68
2023/07/07 20:15:03;;;;;;;4.15;2.20;;;;;;;19.62;100.00;101969.56;10482521;28;20071;-69
2023/07/07 20:20:19;;;;;;;4.55;2.50;;;;;;;19.46;100.00;101968.81;10499377;28;20106;-68
2023/07/07 20:25:20;;;;;;;4.82;2.55;;;;;;;19.16;100.00;101958.63;10499251;28;20567;-68
2023/07/07 20:30:21;;;;;;;4.68;3.38;;;;;;;19.06;100.00;101973.50;10480206;28;20043;-65
2023/07/07 20:35:22;;;;;;;4.90;2.28;;;;;;;18.93;100.00;101974.06;10499331;28;20048;-69
2023/07/07 20:40:24;;;;;;;6.88;2.22;;;;;;;18.80;100.00;101983.88;10480793;28;20044;-71
2023/07/07 20:45:24;;;;;;;5.32;2.83;;;;;;;18.73;100.00;101986.94;10465632;28;20033;-64
2023/07/07 20:50:28;;;;;;;4.80;2.05;;;;;;;18.60;100.00;101990.31;10499992;28;20037;-64
2023/07/07 20:55:29;;;;;;;5.43;2.70;;;;;;;18.48;100.00;102000.91;10481664;28;20232;-67
2023/07/07 21:00:34;;;;;;;6.55;2.55;;;;;;;18.34;100.00;101995.94;10484645;28;20039;-67
2023/07/07 21:05:34;;;;;;;6.35;2.35;;;;;;;18.22;100.00;102005.69;10489057;28;20043;-67
2023/07/07 21:10:35;;;;;;;3.47;2.13;;;;;;;18.12;100.00;102004.56;10507471;28;20040;-67
2023/07/07 21:15:35;;;;;;;6.07;2.80;;;;;;;18.01;100.00;101997.31;10496604;28;20037;-67
2023/07/07 21:20:37;;;;;;;4.85;2.17;;;;;;;17.95;100.00;102007.59;10488082;28;20066;-68
2023/07/07 21:25:41;;;;;;;7.07;2.50;;;;;;;17.90;100.00;102007.63;10487479;28;20043;-67
2023/07/07 21:30:47;;;;;;;4.78;2.85;;;;;;;17.87;100.00;102001.75;10506070;28;20150;-67
2023/07/07 21:35:47;;;;;;;3.90;1.98;;;;;;;17.75;100.00;102004.75;10459022;28;20047;-68
2023/07/07 21:40:48;;;;;;;4.10;2.47;;;;;;;17.65;100.00;102018.66;10464442;28;20051;-67
2023/07/07 21:45:48;;;;;;;5.68;3.13;;;;;;;17.51;100.00;102005.25;10458330;28;20082;-68
2023/07/07 21:50:49;;;;;;;3.50;2.55;;;;;;;17.40;100.00;102009.09;10460842;28;20045;-67
2023/07/07 21:55:49;;;;;;;5.25;2.80;;;;;;;17.32;100.00;102007.72;10429173;28;20066;-67
2023/07/07 22:00:50;;;;;;;3.92;2.83;;;;;;;17.26;100.00;102014.34;10504878;28;20508;-67
2023/07/07 22:05:50;;;;;;;3.80;2.42;;;;;;;17.20;100.00;102009.03;10504976;28;20036;-68
2023/07/07 22:10:51;;;;;;;6.05;2.55;;;;;;;17.12;100.00;102014.00;10469049;28;20033;-67
2023/07/07 22:15:52;;;;;;;5.80;3.13;;;;;;;17.05;100.00;102007.88;10502661;28;20044;-66
2023/07/07 22:20:59;;;;;;;4.97;2.67;;;;;;;16.97;100.00;102005.59;10500786;28;20051;-68
2023/07/07 22:26:00;;;;;;;3.75;2.80;;;;;;;16.98;100.00;102018.38;10465873;28;20392;-67
2023/07/07 22:31:02;;;;;;;6.50;3.00;;;;;;;16.93;100.00;102015.59;10440567;28;20039;-67
2023/07/07 22:36:10;;;;;;;6.35;2.88;;;;;;;16.78;100.00;102004.31;10481645;28;20037;-67
2023/07/07 22:41:14;;;;;;;4.53;3.00;;;;;;;16.78;100.00;102018.22;10477481;28;20059;-67
2023/07/07 22:46:18;;;;;;;6.85;3.40;;;;;;;16.69;100.00;102018.72;10461976;28;20043;-67
2023/07/07 22:51:19;;;;;;;4.13;2.97;;;;;;;16.60;100.00;102011.16;10496485;28;20033;-67
2023/07/07 22:56:28;;;;;;;5.40;3.10;;;;;;;16.49;100.00;101999.13;10463963;28;20044;-67